Time;durP1;ratioP1;P1;durP2;ratioP2;P2;SDS_P1;SDS_P2;PMS_P1;PMS_P2;Temp;Humidity;BMP_temperature;BMP_pressure;BME280_temperature;BME280_humidity;BME280_pressure;Samples;Min_cycle;Max_cycle;Signal;HPM_P1;HPM_P2
2021/12/10 00:00:56;;;;;;;9.55;5.32;;;;;;;4.50;69.28;98813.13;4377928;32;32363;-93
2021/12/10 00:03:52;;;;;;;10.75;5.97;;;;;;;4.66;68.66;98823.94;4403894;32;33186;-91
2021/12/10 00:06:48;;;;;;;11.07;5.70;;;;;;;4.79;68.14;98832.19;4355127;32;32551;-93
2021/12/10 00:09:46;;;;;;;8.43;5.00;;;;;;;4.77;68.08;98815.69;4421445;32;33196;-95
2021/12/10 00:12:33;;;;;;;11.38;5.90;;;;;;;4.70;67.95;98822.91;4389359;32;32921;-94
2021/12/10 00:15:30;;;;;;;12.07;5.68;;;;;;;4.66;68.65;98821.31;4383360;32;32926;-95
2021/12/10 00:18:13;;;;;;;13.43;5.90;;;;;;;4.79;67.75;98806.88;4381057;32;32636;-94
2021/12/10 00:21:05;;;;;;;10.27;5.60;;;;;;;4.50;69.07;98812.28;4340257;32;32171;-95
2021/12/10 00:23:49;;;;;;;8.45;5.07;;;;;;;4.30;69.60;98819.06;4392170;32;33056;-95
2021/12/10 00:26:41;;;;;;;9.82;5.43;;;;;;;4.45;69.49;98827.28;4353805;32;32901;-95
2021/12/10 00:29:21;;;;;;;8.80;5.28;;;;;;;4.23;70.31;98835.87;4405058;32;32337;-95
2021/12/10 00:32:19;;;;;;;;;;;;;;;4.53;69.31;98838.34;4390911;32;31446;-94
2021/12/10 00:42:12;;;;;;;9.80;5.70;;;;;;;4.91;67.63;98831.75;4391234;32;35789;-94
2021/12/10 00:45:09;;;;;;;12.63;6.28;;;;;;;4.62;68.62;98844.09;4368703;32;34001;-90
2021/12/10 00:47:39;;;;;;;10.00;5.18;;;;;;;4.82;68.06;98842.53;4362531;32;32759;-90
2021/12/10 00:50:12;;;;;;;10.48;5.78;;;;;;;4.75;68.16;98841.91;4370444;32;33154;-90
2021/12/10 00:52:42;;;;;;;8.73;5.45;;;;;;;4.48;69.08;98837.63;4359065;32;33836;-90
2021/12/10 00:55:13;;;;;;;11.90;6.07;;;;;;;4.69;68.44;98842.09;4360394;32;32543;-90
2021/12/10 00:57:41;;;;;;;9.60;5.15;;;;;;;4.24;70.01;98845.41;4374410;32;33587;-90
2021/12/10 01:00:14;;;;;;;12.32;6.45;;;;;;;4.55;69.18;98846.97;4362051;32;33403;-95
2021/12/10 01:03:08;;;;;;;13.65;5.07;;;;;;;4.69;68.56;98846.47;4353410;32;33649;-94
2021/12/10 01:06:35;;;;;;;10.90;5.35;;;;;;;4.76;68.37;98845.38;4370072;32;32182;-93
2021/12/10 01:09:30;;;;;;;7.90;4.85;;;;;;;4.57;69.17;98834.72;4353381;32;32450;-95
2021/12/10 01:12:18;;;;;;;11.50;5.75;;;;;;;4.54;69.34;98832.19;4362112;32;33242;-94
2021/12/10 01:27:53;;;;;;;8.38;4.78;;;;;;;4.56;69.03;98830.41;4392538;32;34162;-95
2021/12/10 01:30:36;;;;;;;9.75;5.55;;;;;;;4.79;68.17;98832.19;4363190;32;33451;-94
2021/12/10 01:33:29;;;;;;;9.25;4.80;;;;;;;4.88;67.85;98827.47;4390935;32;32443;-94
2021/12/10 01:36:09;;;;;;;8.48;4.87;;;;;;;4.88;67.91;98843.16;4363064;32;34101;-94
2021/12/10 01:39:05;;;;;;;8.27;4.57;;;;;;;4.81;68.12;98840.84;4355882;32;32707;-92
2021/12/10 01:41:53;;;;;;;6.78;3.62;;;;;;;4.45;69.25;98856.03;4349644;32;32460;-90
2021/12/10 01:44:32;;;;;;;5.35;3.65;;;;;;;4.57;68.77;98847.78;4340427;32;32983;-89
2021/12/10 01:47:04;;;;;;;6.78;3.87;;;;;;;4.69;67.98;98849.09;4340232;32;34354;-89
2021/12/10 01:49:33;;;;;;;5.37;3.67;;;;;;;4.76;67.97;98843.63;4339328;32;32831;-89
2021/12/10 01:52:01;;;;;;;7.35;4.15;;;;;;;4.67;67.97;98845.69;4339116;32;32418;-89
2021/12/10 01:54:34;;;;;;;5.57;3.62;;;;;;;4.42;68.92;98848.31;4339135;32;32658;-89
2021/12/10 01:57:03;;;;;;;5.10;3.28;;;;;;;4.40;69.08;98850.09;4345423;32;33683;-92
2021/12/10 01:59:45;;;;;;;6.12;3.53;;;;;;;4.41;69.02;98843.97;4363417;32;33043;-93
2021/12/10 02:02:42;;;;;;;5.18;3.35;;;;;;;4.33;69.02;98842.47;4354167;32;32368;-93
2021/12/10 02:05:35;;;;;;;4.37;3.50;;;;;;;4.41;68.94;98846.59;4376496;32;34012;-94
2021/12/10 02:08:15;;;;;;;4.90;3.05;;;;;;;4.12;69.91;98841.41;4406034;32;33712;-93
2021/12/10 02:11:42;;;;;;;4.60;2.97;;;;;;;4.14;69.93;98843.16;4392966;32;33057;-92
2021/12/10 02:14:21;;;;;;;6.50;3.70;;;;;;;4.18;69.99;98844.72;4380628;32;32042;-92
2021/12/10 02:17:13;;;;;;;7.22;3.78;;;;;;;4.40;69.38;98845.72;4390987;32;33428;-89
2021/12/10 02:19:41;;;;;;;5.53;3.50;;;;;;;4.59;68.47;98845.94;4405028;32;33054;-89
2021/12/10 02:22:13;;;;;;;5.50;3.05;;;;;;;4.50;68.60;98834.06;4412059;32;33047;-89
2021/12/10 02:24:41;;;;;;;6.12;3.30;;;;;;;4.63;68.21;98837.94;4405738;32;32693;-90
2021/12/10 02:27:09;;;;;;;6.85;4.00;;;;;;;4.57;68.33;98847.78;4404699;32;32458;-89
2021/12/10 02:29:38;;;;;;;8.20;4.47;;;;;;;4.68;67.92;98852.63;4417579;32;32940;-90
2021/12/10 02:32:10;;;;;;;8.80;4.93;;;;;;;4.71;68.04;98856.00;4410201;32;33037;-92
2021/12/10 02:35:15;;;;;;;8.50;4.80;;;;;;;4.61;67.93;98854.62;4421295;27;20106;-93
2021/12/10 02:37:58;;;;;;;8.75;4.07;;;;;;;4.68;67.42;98855.25;4377017;32;33411;-94
2021/12/10 02:40:56;;;;;;;6.05;3.62;;;;;;;4.66;67.48;98855.31;4401945;32;34838;-94
2021/12/10 02:43:37;;;;;;;6.82;3.95;;;;;;;4.45;67.77;98856.03;4408500;32;33072;-95
2021/12/10 02:46:20;;;;;;;6.68;4.37;;;;;;;4.73;66.89;98862.00;4390954;32;32673;-94
2021/12/10 02:49:12;;;;;;;5.60;3.65;;;;;;;4.71;67.02;98856.00;4404195;32;32861;-90
2021/12/10 02:52:06;;;;;;;8.75;4.62;;;;;;;4.64;67.34;98854.50;4359526;32;35434;-88
2021/12/10 02:54:35;;;;;;;8.48;4.87;;;;;;;4.63;67.27;98853.62;4368871;32;33606;-90
2021/12/10 02:57:25;;;;;;;8.27;5.32;;;;;;;4.75;66.98;98841.91;4342283;32;32438;-92
2021/12/10 03:00:13;;;;;;;9.57;4.72;;;;;;;4.87;66.16;98846.69;4373548;32;33020;-91
2021/12/10 03:03:15;;;;;;;8.30;4.97;;;;;;;4.78;66.04;98831.31;4370566;32;32715;-91
2021/12/10 03:05:57;;;;;;;12.02;5.87;;;;;;;4.96;65.35;98834.19;4382681;32;32767;-93
2021/12/10 03:08:50;;;;;;;11.63;6.20;;;;;;;4.48;66.56;98840.25;4388258;32;32806;-94
2021/12/10 03:11:34;;;;;;;10.50;5.70;;;;;;;4.38;66.71;98847.56;4396875;32;32605;-95
2021/12/10 03:14:31;;;;;;;10.27;6.10;;;;;;;4.62;65.98;98844.09;4344101;32;33837;-91
2021/12/10 03:17:16;;;;;;;12.98;5.90;;;;;;;4.81;64.90;98835.59;4340129;32;32934;-92
2021/12/10 03:20:34;;;;;;;11.48;6.50;;;;;;;4.69;65.06;98836.03;4343370;33;31818;-89
2021/12/10 03:23:04;;;;;;;10.63;5.00;;;;;;;4.47;65.92;98831.56;4329121;33;33953;-93
2021/12/10 03:25:59;;;;;;;9.93;6.12;;;;;;;4.32;66.83;98837.28;4366945;32;32897;-94
2021/12/10 03:28:39;;;;;;;10.23;6.55;;;;;;;4.59;65.31;98835.50;4337845;33;33699;-94
2021/12/10 03:32:25;;;;;;;11.75;5.97;;;;;;;4.28;66.04;98847.00;4313421;33;35156;-94
2021/12/10 03:35:25;;;;;;;10.80;6.03;;;;;;;4.12;66.90;98856.25;4323095;33;33747;-94
2021/12/10 03:38:05;;;;;;;12.55;7.10;;;;;;;3.92;67.20;98853.44;4306838;33;33597;-93
2021/12/10 03:40:59;;;;;;;10.68;6.60;;;;;;;3.70;68.08;98859.31;4333130;33;32966;-89
2021/12/10 03:43:27;;;;;;;12.00;7.40;;;;;;;3.97;67.32;98864.59;4335215;33;32265;-92
2021/12/10 03:46:21;;;;;;;13.38;8.20;;;;;;;3.96;67.25;98857.66;4300008;33;32143;-92
2021/12/10 03:49:03;;;;;;;13.23;7.65;;;;;;;4.18;66.69;98850.84;4328250;33;33784;-90
2021/12/10 03:51:55;;;;;;;17.40;8.70;;;;;;;4.24;66.46;98853.25;4370767;32;32568;-93
2021/12/10 03:54:37;;;;;;;15.02;8.63;;;;;;;4.16;66.83;98859.63;4369439;32;32752;-93
2021/12/10 03:57:28;;;;;;;17.52;8.60;;;;;;;3.87;67.69;98855.34;4387928;32;32641;-95
2021/12/10 04:00:09;;;;;;;15.90;8.05;;;;;;;4.00;67.30;98867.97;4410828;32;33193;-95
2021/12/10 04:03:00;;;;;;;15.65;8.38;;;;;;;4.15;66.66;98865.75;4375438;32;32514;-94
2021/12/10 04:05:40;;;;;;;18.05;9.63;;;;;;;4.03;67.22;98867.00;4378344;32;31881;-92
2021/12/10 04:08:32;;;;;;;19.85;9.25;;;;;;;4.17;66.90;98863.94;4373690;32;33477;-96
2021/12/10 04:11:16;;;;;;;20.23;8.85;;;;;;;4.32;66.58;98858.19;4361797;32;33072;-95
2021/12/10 04:14:08;;;;;;;17.77;9.68;;;;;;;4.43;66.07;98857.84;4360150;32;32786;-95
2021/12/10 04:21:12;;;;;;;21.35;9.27;;;;;;;4.26;66.44;98864.47;4355601;33;34705;-94
2021/12/10 04:24:03;;;;;;;22.17;10.20;;;;;;;4.37;66.27;98880.69;4353723;32;33379;-94
2021/12/10 04:26:31;;;;;;;20.42;10.50;;;;;;;4.23;66.61;98890.72;4350509;32;33147;-93
2021/12/10 04:29:23;;;;;;;18.95;10.48;;;;;;;4.29;66.60;98889.69;4353395;32;32111;-93
2021/12/10 04:32:04;;;;;;;20.75;10.13;;;;;;;4.13;66.74;98889.31;4366776;32;33921;-92
2021/12/10 04:34:56;;;;;;;19.77;10.70;;;;;;;4.17;66.65;98890.91;4368250;32;32555;-89
2021/12/10 04:37:23;;;;;;;22.15;11.57;;;;;;;4.38;65.76;98894.59;4365968;32;33777;-88
2021/12/10 04:39:51;;;;;;;22.70;10.65;;;;;;;4.19;66.12;98889.13;4379652;32;34261;-88
2021/12/10 04:42:24;;;;;;;24.52;11.90;;;;;;;4.06;66.55;98903.47;4368597;32;33754;-88
2021/12/10 04:44:54;;;;;;;18.98;10.70;;;;;;;4.10;66.34;98907.69;4381003;32;33346;-89
2021/12/10 04:47:23;;;;;;;21.95;10.82;;;;;;;4.10;66.46;98897.25;4369402;32;33252;-88
2021/12/10 04:49:52;;;;;;;22.00;11.38;;;;;;;4.30;65.80;98897.44;4380707;32;33303;-88
2021/12/10 04:52:21;;;;;;;21.55;10.65;;;;;;;4.51;64.82;98895.91;4379427;32;33189;-89
2021/12/10 04:54:49;;;;;;;22.27;11.60;;;;;;;4.19;66.12;98903.94;4381347;32;32788;-88
2021/12/10 04:57:17;;;;;;;23.92;11.27;;;;;;;4.25;65.96;98914.19;4380273;32;34385;-88
2021/12/10 04:59:45;;;;;;;28.25;12.65;;;;;;;4.15;66.41;98921.47;4367581;32;32394;-89
2021/12/10 05:02:17;;;;;;;25.00;11.98;;;;;;;4.23;66.10;98927.31;4379767;32;32631;-88
2021/12/10 05:04:46;;;;;;;22.65;12.25;;;;;;;3.93;67.19;98943.94;4369713;32;33168;-88
2021/12/10 05:07:16;;;;;;;21.95;11.90;;;;;;;4.22;66.49;98941.25;4380666;32;32245;-88
2021/12/10 05:09:44;;;;;;;25.67;12.43;;;;;;;4.11;66.70;98943.38;4380316;32;33961;-90
2021/12/10 05:12:12;;;;;;;23.90;12.02;;;;;;;4.17;66.65;98932.72;4384960;32;32593;-90
2021/12/10 05:14:40;;;;;;;26.95;12.65;;;;;;;4.50;65.59;98924.69;4380538;32;33267;-90
2021/12/10 05:17:10;;;;;;;29.70;13.90;;;;;;;4.67;64.68;98926.75;4381719;32;33065;-91
2021/12/10 05:20:00;;;;;;;26.65;12.40;;;;;;;4.36;65.82;98923.38;4372270;32;32683;-90
2021/12/10 05:22:29;;;;;;;26.20;12.82;;;;;;;4.41;65.99;98927.59;4382823;32;33002;-91
2021/12/10 05:24:56;;;;;;;29.50;13.95;;;;;;;4.12;66.88;98937.22;4371575;32;32766;-90
2021/12/10 05:27:25;;;;;;;26.02;12.93;;;;;;;4.59;65.46;98929.62;4383238;32;33290;-90
2021/12/10 05:30:17;;;;;;;32.42;14.32;;;;;;;4.45;66.06;98927.47;4384933;32;32317;-88
2021/12/10 05:32:45;;;;;;;28.62;13.75;;;;;;;4.49;66.15;98933.44;4382832;32;32646;-88
2021/12/10 05:35:13;;;;;;;32.42;14.25;;;;;;;4.23;66.87;98924.69;4395914;32;33252;-88
2021/12/10 05:37:41;;;;;;;27.80;13.38;;;;;;;4.48;65.99;98931.75;4395572;32;34225;-88
2021/12/10 05:40:12;;;;;;;29.67;14.63;;;;;;;4.44;66.34;98935.34;4383259;32;32301;-91
2021/12/10 05:42:41;;;;;;;30.08;13.32;;;;;;;4.26;66.88;98942.88;4386260;32;33058;-90
2021/12/10 05:45:31;;;;;;;26.00;13.57;;;;;;;4.69;65.53;98930.16;4369298;32;32840;-90
2021/12/10 05:48:46;;;;;;;30.45;14.25;;;;;;;4.44;66.37;98930.12;4370558;32;33777;-90
2021/12/10 05:51:15;;;;;;;28.05;13.70;;;;;;;4.64;65.58;98932.94;4357268;32;33058;-90
2021/12/10 05:53:43;;;;;;;28.95;13.15;;;;;;;4.57;66.06;98928.81;4357463;32;32996;-93
2021/12/10 05:56:37;;;;;;;25.30;13.25;;;;;;;4.49;66.47;98930.84;4351507;32;33115;-89
2021/12/10 05:59:19;;;;;;;29.40;12.82;;;;;;;4.58;66.27;98933.16;4401744;32;33782;-89
2021/12/10 06:01:47;;;;;;;30.08;14.30;;;;;;;4.58;66.27;98922.69;4394162;32;32707;-88
2021/12/10 06:04:16;;;;;;;30.10;12.95;;;;;;;4.73;65.93;98921.31;4381702;32;33726;-88
2021/12/10 06:06:44;;;;;;;31.20;14.27;;;;;;;4.61;66.35;98906.91;4388968;32;32927;-88
2021/12/10 06:09:11;;;;;;;30.42;14.23;;;;;;;4.58;66.50;98907.00;4383155;32;32442;-87
2021/12/10 06:11:39;;;;;;;35.83;16.20;;;;;;;4.64;66.40;98904.16;4396094;32;33756;-90
2021/12/10 06:14:07;;;;;;;32.60;15.68;;;;;;;4.56;66.70;98908.81;4383291;32;33122;-89
2021/12/10 06:16:35;;;;;;;32.28;14.60;;;;;;;4.60;66.69;98907.78;4394879;32;33583;-89
2021/12/10 06:19:05;;;;;;;29.27;14.00;;;;;;;4.77;66.20;98902.84;4380291;32;32321;-89
2021/12/10 06:21:34;;;;;;;39.40;15.77;;;;;;;4.86;65.86;98907.75;4385248;32;32660;-89
2021/12/10 06:24:03;;;;;;;34.67;16.62;;;;;;;4.98;65.16;98897.78;4394073;32;33700;-93
2021/12/10 06:26:55;;;;;;;33.13;15.50;;;;;;;4.86;65.62;98897.31;4429165;32;33108;-92
2021/12/10 06:29:36;;;;;;;42.08;16.75;;;;;;;4.72;66.10;98891.69;4382096;32;32691;-92
2021/12/10 06:32:27;;;;;;;37.58;16.12;;;;;;;4.88;65.67;98892.84;4374827;32;32056;-94
2021/12/10 06:35:08;;;;;;;34.78;16.67;;;;;;;4.71;66.32;98884.75;4384506;32;32652;-91
2021/12/10 06:38:00;;;;;;;32.25;15.38;;;;;;;4.74;66.43;98889.88;4351101;32;33285;-91
2021/12/10 06:40:42;;;;;;;32.65;14.57;;;;;;;4.77;66.25;98892.38;4408727;32;32663;-93
2021/12/10 06:43:32;;;;;;;32.00;15.68;;;;;;;4.81;66.12;98901.00;4390286;32;32754;-92
2021/12/10 06:46:12;;;;;;;41.63;15.35;;;;;;;4.77;66.34;98900.22;4389180;32;32655;-92
2021/12/10 06:49:04;;;;;;;32.80;14.47;;;;;;;4.78;66.30;98896.72;4398806;32;33157;-91
2021/12/10 06:51:44;;;;;;;36.65;16.77;;;;;;;4.84;66.21;98903.47;4349809;32;33508;-93
2021/12/10 06:54:39;;;;;;;37.30;16.37;;;;;;;5.01;65.40;98902.91;4391163;32;32338;-92
2021/12/10 06:57:19;;;;;;;36.25;16.77;;;;;;;5.13;64.79;98905.94;4382050;32;33256;-93
2021/12/10 07:00:16;;;;;;;36.80;15.88;;;;;;;4.81;65.68;98917.53;4406525;32;32819;-91
2021/12/10 07:02:56;;;;;;;32.13;15.50;;;;;;;4.81;66.11;98914.91;4369693;32;32689;-92
2021/12/10 07:05:49;;;;;;;33.40;14.93;;;;;;;4.93;65.87;98913.63;4366631;32;33314;-91
2021/12/10 07:08:31;;;;;;;33.95;15.27;;;;;;;4.92;65.94;98911.06;4375092;32;33507;-93
2021/12/10 07:11:24;;;;;;;36.10;15.13;;;;;;;5.02;65.71;98907.22;4375849;32;31763;-92
2021/12/10 07:14:03;;;;;;;34.33;15.43;;;;;;;5.08;65.32;98912.22;4402125;32;33636;-93
2021/12/10 07:16:55;;;;;;;32.33;13.87;;;;;;;5.07;65.49;98907.91;4382546;32;31231;-93
2021/12/10 07:19:34;;;;;;;34.85;15.85;;;;;;;4.97;65.94;98896.91;4379787;32;32626;-93
2021/12/10 07:22:25;;;;;;;30.27;14.53;;;;;;;5.03;65.74;98888.87;4399388;32;33503;-92
2021/12/10 07:25:03;;;;;;;31.58;16.05;;;;;;;5.29;64.86;98890.53;4411879;32;32973;-89
2021/12/10 07:27:43;;;;;;;27.65;14.55;;;;;;;5.06;65.79;98893.13;4386631;32;32725;-90
2021/12/10 07:30:27;;;;;;;25.88;13.95;;;;;;;4.92;66.32;98895.37;4379774;32;32959;-92
2021/12/10 07:33:19;;;;;;;30.50;14.20;;;;;;;5.12;65.82;98892.91;4399887;32;33582;-92
2021/12/10 07:36:12;;;;;;;26.40;12.63;;;;;;;5.26;65.46;98881.94;4382276;32;32746;-91
2021/12/10 07:39:05;;;;;;;29.70;14.80;;;;;;;5.53;64.04;98874.81;4357446;32;31844;-92
2021/12/10 07:41:55;;;;;;;26.12;13.80;;;;;;;5.41;64.44;98876.12;4384155;32;32933;-92
2021/12/10 07:44:38;;;;;;;25.25;13.88;;;;;;;5.17;65.22;98874.41;4377420;32;33701;-91
2021/12/10 07:47:18;;;;;;;31.30;14.25;;;;;;;5.03;65.74;98880.13;4387020;32;32693;-93
2021/12/10 07:49:46;;;;;;;30.12;14.98;;;;;;;5.20;65.28;98872.53;4382228;32;32874;-92
2021/12/10 07:52:28;;;;;;;27.60;13.50;;;;;;;5.25;65.18;98867.16;4375400;32;32292;-92
2021/12/10 07:55:21;;;;;;;30.15;13.27;;;;;;;5.36;64.67;98855.38;4372043;32;33239;-90
2021/12/10 07:58:03;;;;;;;25.90;13.43;;;;;;;5.33;64.88;98845.00;4401822;32;32869;-92
2021/12/10 08:00:55;;;;;;;28.35;14.15;;;;;;;5.63;63.37;98836.88;4376378;32;32603;-90
2021/12/10 08:03:47;;;;;;;25.37;13.62;;;;;;;5.40;64.14;98837.75;4365955;32;33171;-91
2021/12/10 08:06:28;;;;;;;30.67;15.20;;;;;;;5.22;64.87;98836.72;4381143;32;32828;-91
2021/12/10 08:09:19;;;;;;;;;;;;;;;5.59;63.57;98830.06;4362111;32;33549;-92
2021/12/10 08:11:59;;;;;;;29.20;14.60;;;;;;;5.65;62.69;98842.94;4401941;32;33206;-90
2021/12/10 08:14:53;;;;;;;29.77;15.40;;;;;;;5.21;64.17;98848.06;4386658;32;34285;-92
2021/12/10 08:17:26;;;;;;;31.85;14.50;;;;;;;5.43;63.82;98849.91;4376920;32;32875;-92
2021/12/10 08:20:20;;;;;;;30.17;14.27;;;;;;;5.60;63.13;98842.22;4384579;32;32846;-91
2021/12/10 08:22:56;;;;;;;29.67;14.63;;;;;;;5.44;63.29;98852.44;4376040;32;31488;-91
2021/12/10 08:25:51;;;;;;;32.00;15.60;;;;;;;5.46;63.34;98855.00;4374730;32;33336;-92
2021/12/10 08:28:41;;;;;;;39.15;16.65;;;;;;;5.18;64.18;98863.91;4373325;32;33108;-92
2021/12/10 08:31:33;;;;;;;36.57;16.03;;;;;;;5.12;64.73;98862.34;4383337;32;20114;-91
2021/12/10 08:34:14;;;;;;;35.20;17.12;;;;;;;5.43;63.82;98863.00;4370701;32;33009;-91
2021/12/10 08:36:56;;;;;;;35.08;16.30;;;;;;;5.14;64.69;98870.16;4358509;32;32937;-90
2021/12/10 08:39:36;;;;;;;36.70;15.07;;;;;;;5.36;64.16;98871.09;4355065;32;33209;-91
2021/12/10 08:42:18;;;;;;;31.15;14.48;;;;;;;5.34;64.07;98861.56;4401708;32;33019;-91
2021/12/10 08:45:14;;;;;;;29.25;13.10;;;;;;;5.38;63.83;98871.88;4376422;32;33226;-92
2021/12/10 08:47:55;;;;;;;30.15;14.07;;;;;;;5.23;64.33;98864.59;4355163;32;32723;-91
2021/12/10 08:50:47;;;;;;;27.37;14.77;;;;;;;5.25;64.21;98864.53;4383391;32;32572;-91
2021/12/10 08:53:27;;;;;;;27.30;13.60;;;;;;;5.13;64.35;98860.63;4386907;32;32780;-91
2021/12/10 08:56:18;;;;;;;32.22;12.98;;;;;;;4.56;66.59;98860.00;4397215;32;32554;-92
2021/12/10 08:58:58;;;;;;;30.00;15.07;;;;;;;4.99;65.42;98858.50;4380496;32;32149;-90
2021/12/10 09:01:50;;;;;;;;;;;;;;;5.12;64.18;98862.34;4364703;32;33700;-90
2021/12/10 09:04:31;;;;;;;26.27;11.88;;;;;;;5.08;65.09;98865.13;4412215;32;32805;-90
2021/12/10 09:07:14;;;;;;;26.73;12.15;;;;;;;5.19;63.58;98849.91;4384017;32;32043;-90
2021/12/10 09:09:54;;;;;;;29.23;14.00;;;;;;;5.12;64.06;98857.13;4395539;32;33088;-92
2021/12/10 09:12:45;;;;;;;28.87;14.25;;;;;;;4.82;65.74;98864.31;4373791;32;33063;-91
2021/12/10 09:15:27;;;;;;;32.65;16.58;;;;;;;4.84;66.64;98872.97;4402267;32;32904;-91
2021/12/10 09:18:21;;;;;;;27.48;13.55;;;;;;;4.84;66.81;98874.72;4356344;32;32156;-92
2021/12/10 09:20:52;;;;;;;29.65;13.40;;;;;;;5.17;66.10;98875.25;4362936;32;32914;-92
2021/12/10 09:23:44;;;;;;;81.20;27.42;;;;;;;5.24;65.73;98870.69;4371140;32;31857;-92
2021/12/10 09:26:27;;;;;;;45.88;19.62;;;;;;;5.33;65.20;98875.56;4373718;32;31767;-91
2021/12/10 09:29:20;;;;;;;32.88;15.88;;;;;;;5.46;64.67;98870.72;4372568;32;31858;-92
2021/12/10 09:31:55;;;;;;;29.90;14.87;;;;;;;5.22;64.93;98868.13;4383635;32;33573;-92
2021/12/10 09:34:35;;;;;;;53.55;20.92;;;;;;;5.55;64.04;98868.59;4381324;32;33797;-92
2021/12/10 09:37:07;;;;;;;29.65;15.18;;;;;;;5.56;64.21;98866.84;4380925;32;33070;-91
2021/12/10 09:39:57;;;;;;;28.03;13.77;;;;;;;5.62;63.94;98866.63;4382079;32;32350;-91
2021/12/10 09:42:29;;;;;;;29.30;14.38;;;;;;;5.83;63.32;98860.53;4381154;32;33721;-91
2021/12/10 09:44:58;;;;;;;28.12;12.90;;;;;;;5.59;64.17;98864.09;4383295;32;34129;-91
2021/12/10 09:47:29;;;;;;;27.58;13.13;;;;;;;5.72;63.67;98873.19;4379315;32;32473;-90
2021/12/10 09:50:14;;;;;;;26.87;13.18;;;;;;;5.73;63.54;98874.06;4377411;32;33355;-91
2021/12/10 09:52:43;;;;;;;27.37;12.88;;;;;;;6.10;62.48;98852.53;4373136;32;32892;-91
2021/12/10 09:55:44;;;;;;;35.67;15.30;;;;;;;5.96;62.61;98860.09;4367730;32;33246;-91
2021/12/10 09:58:13;;;;;;;32.00;14.75;;;;;;;6.15;63.11;98861.03;4364849;32;33059;-90
2021/12/10 10:00:57;;;;;;;63.17;26.30;;;;;;;6.35;62.57;98858.44;4377382;32;31808;-89
2021/12/10 10:03:33;;;;;;;66.22;27.92;;;;;;;6.12;62.58;98861.16;4363904;32;32141;-90
2021/12/10 10:06:01;;;;;;;27.60;13.75;;;;;;;6.17;62.71;98869.69;4378896;32;33969;-91
2021/12/10 10:08:32;;;;;;;21.33;10.30;;;;;;;6.51;61.52;98868.31;4365059;32;32488;-91
2021/12/10 10:11:06;;;;;;;11.68;6.65;;;;;;;6.45;61.15;98871.19;4377268;32;34147;-93
2021/12/10 10:13:46;;;;;;;11.65;5.65;;;;;;;5.88;59.48;98869.06;4377632;32;33539;-90
2021/12/10 10:16:14;;;;;;;9.73;5.60;;;;;;;5.94;58.86;98864.53;4365660;32;33368;-90
2021/12/10 10:18:45;;;;;;;12.95;6.50;;;;;;;6.11;57.91;98870.78;4389841;32;33205;-90
2021/12/10 10:21:17;;;;;;;11.45;6.20;;;;;;;5.86;59.60;98859.56;4388829;32;33353;-90
2021/12/10 10:23:46;;;;;;;13.65;6.22;;;;;;;5.61;61.47;98864.91;4365539;32;33032;-90
2021/12/10 10:26:34;;;;;;;11.63;6.28;;;;;;;5.37;62.73;98867.56;4367824;32;33647;-90
2021/12/10 10:29:16;;;;;;;11.68;6.28;;;;;;;5.85;59.13;98858.72;4363042;32;32929;-90
2021/12/10 10:31:50;;;;;;;12.23;7.50;;;;;;;5.92;58.87;98851.47;4365180;32;32817;-91
2021/12/10 10:34:21;;;;;;;12.37;7.25;;;;;;;5.94;60.33;98840.97;4378062;32;32991;-92
2021/12/10 10:36:53;;;;;;;17.95;9.77;;;;;;;5.83;60.90;98836.94;4389759;32;34874;-89
2021/12/10 10:39:38;;;;;;;15.82;9.07;;;;;;;5.82;61.75;98826.53;4362775;32;32571;-91
2021/12/10 10:42:28;;;;;;;15.38;8.73;;;;;;;5.71;62.53;98821.72;4388476;32;32329;-91
2021/12/10 10:45:21;;;;;;;24.50;12.45;;;;;;;5.95;61.92;98819.09;4377723;32;32872;-91
2021/12/10 10:48:11;;;;;;;40.43;15.67;;;;;;;5.79;62.95;98809.19;4369345;32;34143;-91
2021/12/10 10:51:53;;;;;;;28.60;13.82;;;;;;;5.69;63.70;98814.84;4396473;32;33656;-92
2021/12/10 10:54:41;;;;;;;34.58;16.58;;;;;;;5.71;64.34;98807.78;4375575;32;32143;-92
2021/12/10 10:57:56;;;;;;;36.15;17.87;;;;;;;5.60;65.03;98797.72;4389260;32;32981;-92
2021/12/10 11:00:49;;;;;;;38.30;17.62;;;;;;;5.07;67.10;98800.62;4395787;32;33787;-92
2021/12/10 11:03:59;;;;;;;39.45;19.83;;;;;;;5.70;65.35;98795.59;4398289;32;32566;-91
2021/12/10 11:06:54;;;;;;;675.62;169.77;;;;;;;5.81;64.93;98801.25;4419352;32;32880;-92
2021/12/10 11:09:55;;;;;;;754.05;205.45;;;;;;;5.52;65.72;98791.94;4384709;32;32283;-92
2021/12/10 11:12:38;;;;;;;438.05;112.72;;;;;;;5.34;65.94;98789.13;4397535;32;34122;-90
2021/12/10 11:15:26;;;;;;;73.22;33.40;;;;;;;5.40;66.11;98783.63;4355127;32;32949;-90
2021/12/10 11:17:56;;;;;;;47.78;22.42;;;;;;;5.00;67.14;98792.16;4372741;32;33374;-90
2021/12/10 11:21:03;;;;;;;39.22;17.65;;;;;;;5.27;66.27;98771.97;4382948;32;33023;-90
2021/12/10 11:24:17;;;;;;;38.28;20.35;;;;;;;5.36;65.57;98776.84;4399825;32;32763;-92
2021/12/10 11:27:05;;;;;;;42.80;20.20;;;;;;;4.90;67.29;98787.34;4397461;32;32353;-92
2021/12/10 11:30:22;;;;;;;39.03;19.02;;;;;;;5.50;65.29;98785.91;4375969;32;32548;-92
2021/12/10 11:33:23;;;;;;;36.88;18.87;;;;;;;5.45;66.08;98782.63;4347253;32;32649;-91
2021/12/10 11:36:18;;;;;;;43.47;19.52;;;;;;;5.56;65.69;98776.06;4362739;32;32860;-92
2021/12/10 11:39:18;;;;;;;37.70;17.27;;;;;;;5.48;65.56;98775.50;4380856;32;32612;-92
2021/12/10 11:41:58;;;;;;;37.63;17.52;;;;;;;5.75;64.68;98773.56;4348468;32;33497;-92
2021/12/10 11:45:05;;;;;;;257.83;70.93;;;;;;;5.69;65.51;98773.78;4314447;33;32726;-92
2021/12/10 11:47:50;;;;;;;589.95;144.95;;;;;;;5.14;66.75;98770.72;4343393;32;32868;-92
2021/12/10 11:50:46;;;;;;;201.77;58.40;;;;;;;5.43;66.07;98771.38;4358825;32;33274;-92
2021/12/10 11:53:34;;;;;;;500.45;129.93;;;;;;;5.44;65.60;98781.75;4368429;32;32269;-92
2021/12/10 11:56:28;;;;;;;210.20;59.88;;;;;;;4.99;67.38;98774.78;4369710;32;33625;-92
2021/12/10 11:59:10;;;;;;;160.15;57.58;;;;;;;5.15;67.46;98777.66;4385592;32;32690;-93
2021/12/10 12:02:07;;;;;;;57.85;26.17;;;;;;;5.34;66.86;98778.66;4400355;32;32154;-92
2021/12/10 12:05:01;;;;;;;43.20;20.90;;;;;;;5.20;66.91;98761.78;4380817;32;33991;-93
2021/12/10 12:07:55;;;;;;;40.63;20.65;;;;;;;4.95;67.61;98767.09;4381677;32;32634;-92
2021/12/10 12:10:49;;;;;;;38.25;17.52;;;;;;;4.73;68.83;98762.66;4366214;32;33605;-91
2021/12/10 12:13:35;;;;;;;41.97;18.55;;;;;;;4.92;68.25;98769.81;4375532;32;32589;-92
2021/12/10 12:16:28;;;;;;;39.33;19.37;;;;;;;4.90;68.27;98776.88;4373552;32;32602;-92
2021/12/10 12:19:11;;;;;;;46.63;20.62;;;;;;;4.79;68.36;98775.47;4355081;32;32622;-92
2021/12/10 12:25:32;;;;;;;156.98;46.95;;;;;;;5.25;66.75;98765.91;4376050;32;32874;-92
2021/12/10 12:29:01;;;;;;;618.87;157.48;;;;;;;4.82;68.06;98769.31;4378264;32;33851;-92
2021/12/10 12:31:49;;;;;;;144.60;46.88;;;;;;;5.00;67.63;98762.53;4358293;32;32900;-92
2021/12/10 12:34:46;;;;;;;269.35;78.32;;;;;;;5.19;67.03;98742.63;4331086;33;33665;-91
2021/12/10 12:37:29;;;;;;;127.90;50.42;;;;;;;5.02;67.23;98751.09;4354747;32;33414;-92
2021/12/10 12:40:20;;;;;;;58.63;27.75;;;;;;;4.63;68.31;98750.81;4361557;32;33168;-91
2021/12/10 12:43:04;;;;;;;60.95;26.42;;;;;;;5.09;66.97;98741.25;4344820;32;32519;-92
2021/12/10 12:46:04;;;;;;;50.08;24.42;;;;;;;5.14;67.17;98734.94;4326585;33;33966;-93
2021/12/10 12:48:59;;;;;;;63.22;25.10;;;;;;;5.19;67.06;98729.53;4355413;32;33610;-93
2021/12/10 12:52:09;;;;;;;85.68;30.35;;;;;;;4.88;67.42;98733.31;4347429;32;32135;-92
2021/12/10 12:55:29;;;;;;;53.90;21.20;;;;;;;5.39;66.41;98742.69;4416397;32;34082;-91
2021/12/10 12:58:44;;;;;;;42.78;20.12;;;;;;;5.60;65.87;98721.78;4339359;32;34006;-91
2021/12/10 13:01:30;;;;;;;36.38;16.58;;;;;;;5.75;65.51;98720.31;4356826;32;33156;-91
2021/12/10 13:04:38;;;;;;;32.97;16.50;;;;;;;5.99;64.17;98713.22;4387085;32;33683;-91
2021/12/10 13:07:21;;;;;;;33.58;18.50;;;;;;;5.61;65.34;98720.87;4319824;33;32965;-92
2021/12/10 13:10:19;;;;;;;33.30;16.73;;;;;;;5.98;64.26;98733.34;4314501;33;32897;-91
2021/12/10 13:13:10;;;;;;;187.30;71.50;;;;;;;5.81;64.56;98720.91;4389357;32;32707;-92
2021/12/10 13:16:02;;;;;;;45.08;23.05;;;;;;;5.95;64.18;98716.91;4361635;32;32288;-91
2021/12/10 13:18:42;;;;;;;167.82;44.42;;;;;;;5.77;64.21;98710.63;4340680;32;32978;-91